sensor_id;sensor_type;location;lat;lon;timestamp;temperature;humidity
60701;DHT22;46541;49.894;10.886;2023-04-25T00:00:17;10.80;99.90
60701;DHT22;46541;49.894;10.886;2023-04-25T00:02:44;10.80;99.90
60701;DHT22;46541;49.894;10.886;2023-04-25T00:05:13;10.70;99.90
60701;DHT22;46541;49.894;10.886;2023-04-25T00:07:41;10.70;99.90
60701;DHT22;46541;49.894;10.886;2023-04-25T00:10:09;10.70;99.90
60701;DHT22;46541;49.894;10.886;2023-04-25T00:12:38;10.80;99.90
60701;DHT22;46541;49.894;10.886;2023-04-25T00:15:05;10.80;99.90
60701;DHT22;46541;49.894;10.886;2023-04-25T00:17:32;10.70;99.90
60701;DHT22;46541;49.894;10.886;2023-04-25T00:20:01;10.70;99.90
60701;DHT22;46541;49.894;10.886;2023-04-25T00:22:32;10.70;99.90
60701;DHT22;46541;49.894;10.886;2023-04-25T00:25:00;10.70;99.90
60701;DHT22;46541;49.894;10.886;2023-04-25T00:27:26;10.60;99.90
60701;DHT22;46541;49.894;10.886;2023-04-25T00:29:53;10.60;99.90
60701;DHT22;46541;49.894;10.886;2023-04-25T00:32:20;10.50;99.90
60701;DHT22;46541;49.894;10.886;2023-04-25T00:34:47;10.50;99.90
60701;DHT22;46541;49.894;10.886;2023-04-25T00:37:13;10.50;99.90
60701;DHT22;46541;49.894;10.886;2023-04-25T00:39:40;10.50;99.90
60701;DHT22;46541;49.894;10.886;2023-04-25T00:42:08;10.50;99.90
60701;DHT22;46541;49.894;10.886;2023-04-25T00:44:35;10.50;99.90
60701;DHT22;46541;49.894;10.886;2023-04-25T00:47:02;10.60;99.90
60701;DHT22;46541;49.894;10.886;2023-04-25T00:49:30;10.50;99.90
60701;DHT22;46541;49.894;10.886;2023-04-25T00:51:56;10.60;99.90
60701;DHT22;46541;49.894;10.886;2023-04-25T00:54:23;10.60;99.90
60701;DHT22;46541;49.894;10.886;2023-04-25T00:56:51;10.70;99.90
60701;DHT22;46541;49.894;10.886;2023-04-25T00:59:19;10.70;99.90
60701;DHT22;46541;49.894;10.886;2023-04-25T01:01:46;10.70;99.90
60701;DHT22;46541;49.894;10.886;2023-04-25T01:04:13;10.70;99.90
60701;DHT22;46541;49.894;10.886;2023-04-25T01:06:40;10.70;99.90
60701;DHT22;46541;49.894;10.886;2023-04-25T01:09:07;10.70;99.90
60701;DHT22;46541;49.894;10.886;2023-04-25T01:11:34;10.70;99.90
60701;DHT22;46541;49.894;10.886;2023-04-25T01:14:01;10.70;99.90
60701;DHT22;46541;49.894;10.886;2023-04-25T01:16:28;10.70;99.90
60701;DHT22;46541;49.894;10.886;2023-04-25T01:18:55;10.70;99.90
60701;DHT22;46541;49.894;10.886;2023-04-25T01:21:22;10.60;99.90
60701;DHT22;46541;49.894;10.886;2023-04-25T01:23:49;10.70;99.90
60701;DHT22;46541;49.894;10.886;2023-04-25T01:26:17;10.70;99.90
60701;DHT22;46541;49.894;10.886;2023-04-25T01:28:44;10.70;99.90
60701;DHT22;46541;49.894;10.886;2023-04-25T01:31:12;10.60;99.90
60701;DHT22;46541;49.894;10.886;2023-04-25T01:33:39;10.70;99.90
60701;DHT22;46541;49.894;10.886;2023-04-25T01:36:06;10.60;99.90
60701;DHT22;46541;49.894;10.886;2023-04-25T01:38:33;10.60;99.90
60701;DHT22;46541;49.894;10.886;2023-04-25T01:40:59;10.60;99.90
60701;DHT22;46541;49.894;10.886;2023-04-25T01:43:26;10.60;99.90
60701;DHT22;46541;49.894;10.886;2023-04-25T01:45:53;10.60;99.90
60701;DHT22;46541;49.894;10.886;2023-04-25T01:48:20;10.70;99.90
60701;DHT22;46541;49.894;10.886;2023-04-25T01:50:47;10.70;99.90
60701;DHT22;46541;49.894;10.886;2023-04-25T01:53:14;10.60;99.90
60701;DHT22;46541;49.894;10.886;2023-04-25T01:55:41;10.60;99.90
60701;DHT22;46541;49.894;10.886;2023-04-25T01:58:08;10.60;99.90
60701;DHT22;46541;49.894;10.886;2023-04-25T02:00:39;10.60;99.90
60701;DHT22;46541;49.894;10.886;2023-04-25T02:03:07;10.50;99.90
60701;DHT22;46541;49.894;10.886;2023-04-25T02:05:38;10.50;99.90
60701;DHT22;46541;49.894;10.886;2023-04-25T02:08:06;10.40;99.90
60701;DHT22;46541;49.894;10.886;2023-04-25T02:10:34;10.40;99.90
60701;DHT22;46541;49.894;10.886;2023-04-25T02:13:01;10.40;99.90
60701;DHT22;46541;49.894;10.886;2023-04-25T02:15:28;10.40;99.90
60701;DHT22;46541;49.894;10.886;2023-04-25T02:17:55;10.40;99.90
60701;DHT22;46541;49.894;10.886;2023-04-25T02:20:23;10.40;99.90
60701;DHT22;46541;49.894;10.886;2023-04-25T02:22:51;10.40;99.90
60701;DHT22;46541;49.894;10.886;2023-04-25T02:25:19;10.40;99.90
60701;DHT22;46541;49.894;10.886;2023-04-25T02:27:47;10.40;99.90
60701;DHT22;46541;49.894;10.886;2023-04-25T02:30:14;10.40;99.90
60701;DHT22;46541;49.894;10.886;2023-04-25T02:32:42;10.40;99.90
60701;DHT22;46541;49.894;10.886;2023-04-25T02:35:09;10.50;99.90
60701;DHT22;46541;49.894;10.886;2023-04-25T02:37:37;10.40;99.90
60701;DHT22;46541;49.894;10.886;2023-04-25T02:40:05;10.40;99.90
60701;DHT22;46541;49.894;10.886;2023-04-25T02:42:33;10.40;99.90
60701;DHT22;46541;49.894;10.886;2023-04-25T02:44:59;10.30;99.90
60701;DHT22;46541;49.894;10.886;2023-04-25T02:47:26;10.30;99.90
60701;DHT22;46541;49.894;10.886;2023-04-25T02:49:53;10.30;99.90
60701;DHT22;46541;49.894;10.886;2023-04-25T02:52:20;10.40;99.90
60701;DHT22;46541;49.894;10.886;2023-04-25T02:54:47;10.30;99.90
60701;DHT22;46541;49.894;10.886;2023-04-25T02:57:14;10.40;99.90
60701;DHT22;46541;49.894;10.886;2023-04-25T02:59:41;10.40;99.90
60701;DHT22;46541;49.894;10.886;2023-04-25T03:02:07;10.30;99.90
60701;DHT22;46541;49.894;10.886;2023-04-25T03:04:34;10.30;99.90
60701;DHT22;46541;49.894;10.886;2023-04-25T03:07:01;10.30;99.90
60701;DHT22;46541;49.894;10.886;2023-04-25T03:09:28;10.30;99.90
60701;DHT22;46541;49.894;10.886;2023-04-25T03:11:54;10.30;99.90
60701;DHT22;46541;49.894;10.886;2023-04-25T03:14:21;10.20;99.90
60701;DHT22;46541;49.894;10.886;2023-04-25T03:16:48;10.30;99.90
60701;DHT22;46541;49.894;10.886;2023-04-25T03:19:15;10.30;99.90
60701;DHT22;46541;49.894;10.886;2023-04-25T03:21:43;10.20;99.90
60701;DHT22;46541;49.894;10.886;2023-04-25T03:24:12;10.20;99.90
60701;DHT22;46541;49.894;10.886;2023-04-25T03:26:39;10.30;99.90
60701;DHT22;46541;49.894;10.886;2023-04-25T03:29:05;10.30;99.90
60701;DHT22;46541;49.894;10.886;2023-04-25T03:31:32;10.30;99.90
60701;DHT22;46541;49.894;10.886;2023-04-25T03:33:59;10.30;99.90
60701;DHT22;46541;49.894;10.886;2023-04-25T03:36:26;10.30;99.90
60701;DHT22;46541;49.894;10.886;2023-04-25T03:38:52;10.30;99.90
60701;DHT22;46541;49.894;10.886;2023-04-25T03:41:19;10.20;99.90
60701;DHT22;46541;49.894;10.886;2023-04-25T03:43:46;10.30;99.90
60701;DHT22;46541;49.894;10.886;2023-04-25T03:46:13;10.30;99.90
60701;DHT22;46541;49.894;10.886;2023-04-25T03:48:40;10.20;99.90
60701;DHT22;46541;49.894;10.886;2023-04-25T03:51:07;10.20;99.90
60701;DHT22;46541;49.894;10.886;2023-04-25T03:53:34;10.20;99.90
60701;DHT22;46541;49.894;10.886;2023-04-25T03:56:01;10.10;99.90
60701;DHT22;46541;49.894;10.886;2023-04-25T03:58:27;10.20;99.90
60701;DHT22;46541;49.894;10.886;2023-04-25T04:00:54;10.20;99.90
60701;DHT22;46541;49.894;10.886;2023-04-25T04:03:21;10.10;99.90
60701;DHT22;46541;49.894;10.886;2023-04-25T04:05:48;10.10;99.90
60701;DHT22;46541;49.894;10.886;2023-04-25T04:08:15;10.20;99.90
60701;DHT22;46541;49.894;10.886;2023-04-25T04:10:42;10.10;99.90
60701;DHT22;46541;49.894;10.886;2023-04-25T04:13:08;10.10;99.90
60701;DHT22;46541;49.894;10.886;2023-04-25T04:15:35;10.10;99.90
60701;DHT22;46541;49.894;10.886;2023-04-25T04:18:02;10.10;99.90
60701;DHT22;46541;49.894;10.886;2023-04-25T04:20:29;10.10;99.90
60701;DHT22;46541;49.894;10.886;2023-04-25T04:22:59;10.00;99.90
60701;DHT22;46541;49.894;10.886;2023-04-25T04:25:25;10.00;99.90
60701;DHT22;46541;49.894;10.886;2023-04-25T04:27:52;10.00;99.90
60701;DHT22;46541;49.894;10.886;2023-04-25T04:30:22;10.00;99.90
60701;DHT22;46541;49.894;10.886;2023-04-25T04:32:51;10.00;99.90
60701;DHT22;46541;49.894;10.886;2023-04-25T04:35:18;10.00;99.90
60701;DHT22;46541;49.894;10.886;2023-04-25T04:37:45;10.00;99.90
60701;DHT22;46541;49.894;10.886;2023-04-25T04:40:12;10.00;99.90
60701;DHT22;46541;49.894;10.886;2023-04-25T04:42:43;10.10;99.90
60701;DHT22;46541;49.894;10.886;2023-04-25T04:45:10;10.10;99.90
60701;DHT22;46541;49.894;10.886;2023-04-25T04:47:37;10.10;99.90
60701;DHT22;46541;49.894;10.886;2023-04-25T04:50:10;10.00;99.90
60701;DHT22;46541;49.894;10.886;2023-04-25T04:52:37;10.00;99.90
60701;DHT22;46541;49.894;10.886;2023-04-25T04:55:05;10.00;99.90
60701;DHT22;46541;49.894;10.886;2023-04-25T04:57:32;10.10;99.90
60701;DHT22;46541;49.894;10.886;2023-04-25T04:59:59;10.00;99.90
60701;DHT22;46541;49.894;10.886;2023-04-25T05:02:26;10.00;99.90
60701;DHT22;46541;49.894;10.886;2023-04-25T05:04:55;10.00;99.90
60701;DHT22;46541;49.894;10.886;2023-04-25T05:07:22;10.00;99.90
60701;DHT22;46541;49.894;10.886;2023-04-25T05:09:49;10.10;99.90
60701;DHT22;46541;49.894;10.886;2023-04-25T05:12:15;10.00;99.90
60701;DHT22;46541;49.894;10.886;2023-04-25T05:14:42;10.10;99.90
60701;DHT22;46541;49.894;10.886;2023-04-25T05:17:09;10.10;99.90
60701;DHT22;46541;49.894;10.886;2023-04-25T05:19:35;10.00;99.90
60701;DHT22;46541;49.894;10.886;2023-04-25T05:22:02;10.00;99.90
60701;DHT22;46541;49.894;10.886;2023-04-25T05:24:29;10.00;99.90
60701;DHT22;46541;49.894;10.886;2023-04-25T05:26:57;10.10;99.90
60701;DHT22;46541;49.894;10.886;2023-04-25T05:29:24;10.10;99.90
60701;DHT22;46541;49.894;10.886;2023-04-25T05:31:50;10.10;99.90
60701;DHT22;46541;49.894;10.886;2023-04-25T05:34:17;10.10;99.90
60701;DHT22;46541;49.894;10.886;2023-04-25T05:36:44;10.10;99.90
60701;DHT22;46541;49.894;10.886;2023-04-25T05:39:11;10.10;99.90
60701;DHT22;46541;49.894;10.886;2023-04-25T05:41:37;10.00;99.90
60701;DHT22;46541;49.894;10.886;2023-04-25T05:44:04;10.00;99.90
60701;DHT22;46541;49.894;10.886;2023-04-25T05:46:31;10.00;99.90
60701;DHT22;46541;49.894;10.886;2023-04-25T05:48:58;10.00;99.90
60701;DHT22;46541;49.894;10.886;2023-04-25T05:51:24;10.00;99.90
60701;DHT22;46541;49.894;10.886;2023-04-25T05:53:52;10.00;99.90
60701;DHT22;46541;49.894;10.886;2023-04-25T05:56:19;10.10;99.90
60701;DHT22;46541;49.894;10.886;2023-04-25T05:58:45;10.10;99.90
60701;DHT22;46541;49.894;10.886;2023-04-25T06:01:13;10.10;99.90
60701;DHT22;46541;49.894;10.886;2023-04-25T06:03:40;9.90;99.90
60701;DHT22;46541;49.894;10.886;2023-04-25T06:06:10;9.80;99.90
60701;DHT22;46541;49.894;10.886;2023-04-25T06:08:37;9.80;99.90
60701;DHT22;46541;49.894;10.886;2023-04-25T06:11:04;9.90;99.90
60701;DHT22;46541;49.894;10.886;2023-04-25T06:13:31;10.00;99.90
60701;DHT22;46541;49.894;10.886;2023-04-25T06:15:58;10.10;99.90
60701;DHT22;46541;49.894;10.886;2023-04-25T06:18:25;10.20;99.90
60701;DHT22;46541;49.894;10.886;2023-04-25T06:20:51;10.30;99.90
60701;DHT22;46541;49.894;10.886;2023-04-25T06:23:18;10.50;99.90
60701;DHT22;46541;49.894;10.886;2023-04-25T06:25:45;10.60;99.90
60701;DHT22;46541;49.894;10.886;2023-04-25T06:28:11;10.70;99.90
60701;DHT22;46541;49.894;10.886;2023-04-25T06:30:38;10.70;99.90
60701;DHT22;46541;49.894;10.886;2023-04-25T06:33:05;10.80;99.90
60701;DHT22;46541;49.894;10.886;2023-04-25T06:35:32;10.90;99.90
60701;DHT22;46541;49.894;10.886;2023-04-25T06:37:58;10.90;99.90
60701;DHT22;46541;49.894;10.886;2023-04-25T06:40:25;11.00;99.90
60701;DHT22;46541;49.894;10.886;2023-04-25T06:42:52;11.00;99.90
60701;DHT22;46541;49.894;10.886;2023-04-25T06:45:19;11.10;99.90
60701;DHT22;46541;49.894;10.886;2023-04-25T06:47:45;11.10;99.90
60701;DHT22;46541;49.894;10.886;2023-04-25T06:50:12;11.20;99.90
60701;DHT22;46541;49.894;10.886;2023-04-25T06:52:39;11.20;99.90
60701;DHT22;46541;49.894;10.886;2023-04-25T06:55:06;11.10;99.90
60701;DHT22;46541;49.894;10.886;2023-04-25T06:57:33;11.10;99.90
60701;DHT22;46541;49.894;10.886;2023-04-25T06:59:59;11.10;99.90
60701;DHT22;46541;49.894;10.886;2023-04-25T07:02:28;11.10;99.90
60701;DHT22;46541;49.894;10.886;2023-04-25T07:04:55;11.10;99.90
60701;DHT22;46541;49.894;10.886;2023-04-25T07:07:26;11.10;99.90
60701;DHT22;46541;49.894;10.886;2023-04-25T07:09:53;11.30;99.90
60701;DHT22;46541;49.894;10.886;2023-04-25T07:12:20;11.60;99.90
60701;DHT22;46541;49.894;10.886;2023-04-25T07:14:46;11.80;99.90
60701;DHT22;46541;49.894;10.886;2023-04-25T07:17:13;11.90;99.90
60701;DHT22;46541;49.894;10.886;2023-04-25T07:19:40;12.00;99.90
60701;DHT22;46541;49.894;10.886;2023-04-25T07:22:07;12.10;99.90
60701;DHT22;46541;49.894;10.886;2023-04-25T07:24:33;12.20;99.90
60701;DHT22;46541;49.894;10.886;2023-04-25T07:27:00;12.30;99.90
60701;DHT22;46541;49.894;10.886;2023-04-25T07:29:27;12.40;99.90
60701;DHT22;46541;49.894;10.886;2023-04-25T07:31:54;12.20;99.90
60701;DHT22;46541;49.894;10.886;2023-04-25T07:34:21;12.10;99.90
60701;DHT22;46541;49.894;10.886;2023-04-25T07:36:48;12.20;99.90
60701;DHT22;46541;49.894;10.886;2023-04-25T07:39:14;12.40;99.90
60701;DHT22;46541;49.894;10.886;2023-04-25T07:41:41;12.60;99.90
60701;DHT22;46541;49.894;10.886;2023-04-25T07:44:08;12.80;99.90
60701;DHT22;46541;49.894;10.886;2023-04-25T07:46:35;13.10;99.90
60701;DHT22;46541;49.894;10.886;2023-04-25T07:49:01;13.20;99.90
60701;DHT22;46541;49.894;10.886;2023-04-25T07:51:28;13.10;99.90
60701;DHT22;46541;49.894;10.886;2023-04-25T07:53:55;13.00;99.90
60701;DHT22;46541;49.894;10.886;2023-04-25T07:56:22;13.00;99.90
60701;DHT22;46541;49.894;10.886;2023-04-25T07:58:49;12.80;99.90
60701;DHT22;46541;49.894;10.886;2023-04-25T08:01:16;12.70;99.90
60701;DHT22;46541;49.894;10.886;2023-04-25T08:03:43;13.10;99.90
60701;DHT22;46541;49.894;10.886;2023-04-25T08:06:11;13.50;99.90
60701;DHT22;46541;49.894;10.886;2023-04-25T08:08:38;13.40;99.90
60701;DHT22;46541;49.894;10.886;2023-04-25T08:11:05;13.30;99.90
60701;DHT22;46541;49.894;10.886;2023-04-25T08:13:32;13.40;99.90
60701;DHT22;46541;49.894;10.886;2023-04-25T08:15:58;13.60;99.90
60701;DHT22;46541;49.894;10.886;2023-04-25T08:18:25;13.90;99.90
60701;DHT22;46541;49.894;10.886;2023-04-25T08:20:52;14.00;99.90
60701;DHT22;46541;49.894;10.886;2023-04-25T08:23:19;13.90;99.90
60701;DHT22;46541;49.894;10.886;2023-04-25T08:25:46;13.90;99.90
60701;DHT22;46541;49.894;10.886;2023-04-25T08:28:13;13.90;99.90
60701;DHT22;46541;49.894;10.886;2023-04-25T08:30:40;13.80;99.90
60701;DHT22;46541;49.894;10.886;2023-04-25T08:33:07;13.80;99.90
60701;DHT22;46541;49.894;10.886;2023-04-25T08:35:34;13.70;99.50
60701;DHT22;46541;49.894;10.886;2023-04-25T08:38:01;13.40;99.40
60701;DHT22;46541;49.894;10.886;2023-04-25T08:40:28;13.40;99.20
60701;DHT22;46541;49.894;10.886;2023-04-25T08:43:00;13.40;99.30
60701;DHT22;46541;49.894;10.886;2023-04-25T08:45:31;13.60;99.20
60701;DHT22;46541;49.894;10.886;2023-04-25T08:47:58;13.90;98.90
60701;DHT22;46541;49.894;10.886;2023-04-25T08:50:26;13.90;99.30
60701;DHT22;46541;49.894;10.886;2023-04-25T08:52:54;14.10;99.20
60701;DHT22;46541;49.894;10.886;2023-04-25T08:55:22;13.90;98.10
60701;DHT22;46541;49.894;10.886;2023-04-25T08:57:49;13.70;99.40
60701;DHT22;46541;49.894;10.886;2023-04-25T09:00:17;13.50;99.50
60701;DHT22;46541;49.894;10.886;2023-04-25T09:02:45;13.70;99.50
60701;DHT22;46541;49.894;10.886;2023-04-25T09:05:13;13.80;98.80
60701;DHT22;46541;49.894;10.886;2023-04-25T09:07:40;14.00;98.80
60701;DHT22;46541;49.894;10.886;2023-04-25T09:10:07;14.40;98.50
60701;DHT22;46541;49.894;10.886;2023-04-25T09:12:35;14.60;97.80
60701;DHT22;46541;49.894;10.886;2023-04-25T09:15:10;14.60;97.70
60701;DHT22;46541;49.894;10.886;2023-04-25T09:17:41;14.80;96.90
60701;DHT22;46541;49.894;10.886;2023-04-25T09:20:12;15.00;96.10
60701;DHT22;46541;49.894;10.886;2023-04-25T09:22:40;15.10;95.60
60701;DHT22;46541;49.894;10.886;2023-04-25T09:25:11;15.60;94.70
60701;DHT22;46541;49.894;10.886;2023-04-25T09:27:52;15.40;93.70
60701;DHT22;46541;49.894;10.886;2023-04-25T09:30:29;14.90;95.10
60701;DHT22;46541;49.894;10.886;2023-04-25T09:33:03;14.80;94.10
60701;DHT22;46541;49.894;10.886;2023-04-25T09:35:38;14.80;94.20
60701;DHT22;46541;49.894;10.886;2023-04-25T09:38:10;15.20;94.00
60701;DHT22;46541;49.894;10.886;2023-04-25T09:40:45;15.90;92.70
60701;DHT22;46541;49.894;10.886;2023-04-25T09:43:25;16.10;92.10
60701;DHT22;46541;49.894;10.886;2023-04-25T09:45:53;15.60;92.60
60701;DHT22;46541;49.894;10.886;2023-04-25T09:48:26;15.50;93.00
60701;DHT22;46541;49.894;10.886;2023-04-25T09:51:10;15.30;93.50
60701;DHT22;46541;49.894;10.886;2023-04-25T09:53:45;15.50;93.10
60701;DHT22;46541;49.894;10.886;2023-04-25T09:56:13;15.80;92.50
60701;DHT22;46541;49.894;10.886;2023-04-25T09:58:40;15.90;91.30
60701;DHT22;46541;49.894;10.886;2023-04-25T10:01:09;16.00;90.50
60701;DHT22;46541;49.894;10.886;2023-04-25T10:03:37;16.20;90.20
60701;DHT22;46541;49.894;10.886;2023-04-25T10:06:12;16.50;88.10
60701;DHT22;46541;49.894;10.886;2023-04-25T10:08:40;16.90;83.20
60701;DHT22;46541;49.894;10.886;2023-04-25T10:11:08;16.90;82.90
60701;DHT22;46541;49.894;10.886;2023-04-25T10:13:36;16.40;83.00
60701;DHT22;46541;49.894;10.886;2023-04-25T10:16:04;16.20;84.20
60701;DHT22;46541;49.894;10.886;2023-04-25T10:18:32;16.50;82.50
60701;DHT22;46541;49.894;10.886;2023-04-25T10:21:04;16.60;80.10
60701;DHT22;46541;49.894;10.886;2023-04-25T10:23:32;16.80;80.60
60701;DHT22;46541;49.894;10.886;2023-04-25T10:26:00;16.60;79.50
60701;DHT22;46541;49.894;10.886;2023-04-25T10:28:27;16.80;79.50
60701;DHT22;46541;49.894;10.886;2023-04-25T10:31:01;17.10;79.50
60701;DHT22;46541;49.894;10.886;2023-04-25T10:33:36;17.40;77.10
60701;DHT22;46541;49.894;10.886;2023-04-25T10:36:23;17.40;74.50
60701;DHT22;46541;49.894;10.886;2023-04-25T10:38:51;17.60;72.90
60701;DHT22;46541;49.894;10.886;2023-04-25T10:41:19;17.40;73.70
60701;DHT22;46541;49.894;10.886;2023-04-25T10:43:47;17.50;74.50
60701;DHT22;46541;49.894;10.886;2023-04-25T10:48:50;17.30;72.70
60701;DHT22;46541;49.894;10.886;2023-04-25T10:51:22;16.90;71.90
60701;DHT22;46541;49.894;10.886;2023-04-25T10:56:24;16.10;73.90
60701;DHT22;46541;49.894;10.886;2023-04-25T10:58:51;15.50;76.40
60701;DHT22;46541;49.894;10.886;2023-04-25T11:01:21;15.10;78.00
60701;DHT22;46541;49.894;10.886;2023-04-25T11:03:57;15.00;79.00
60701;DHT22;46541;49.894;10.886;2023-04-25T11:06:29;15.00;79.50
60701;DHT22;46541;49.894;10.886;2023-04-25T11:09:00;14.80;79.90
60701;DHT22;46541;49.894;10.886;2023-04-25T11:11:28;14.60;80.80
60701;DHT22;46541;49.894;10.886;2023-04-25T11:13:55;14.90;81.20
60701;DHT22;46541;49.894;10.886;2023-04-25T11:16:24;14.90;81.40
60701;DHT22;46541;49.894;10.886;2023-04-25T11:18:57;15.10;81.70
60701;DHT22;46541;49.894;10.886;2023-04-25T11:21:25;15.10;81.10
60701;DHT22;46541;49.894;10.886;2023-04-25T11:23:59;15.10;80.90
60701;DHT22;46541;49.894;10.886;2023-04-25T11:26:27;15.00;81.90
60701;DHT22;46541;49.894;10.886;2023-04-25T11:28:57;15.10;81.40
60701;DHT22;46541;49.894;10.886;2023-04-25T11:31:26;15.60;80.70
60701;DHT22;46541;49.894;10.886;2023-04-25T11:33:58;16.00;79.00
60701;DHT22;46541;49.894;10.886;2023-04-25T11:36:26;16.00;78.20
60701;DHT22;46541;49.894;10.886;2023-04-25T11:38:53;16.20;77.20
60701;DHT22;46541;49.894;10.886;2023-04-25T11:41:20;16.20;76.70
60701;DHT22;46541;49.894;10.886;2023-04-25T11:43:49;16.30;76.10
60701;DHT22;46541;49.894;10.886;2023-04-25T11:46:18;16.20;75.20
60701;DHT22;46541;49.894;10.886;2023-04-25T11:48:46;16.00;74.50
60701;DHT22;46541;49.894;10.886;2023-04-25T11:51:14;15.80;75.80
60701;DHT22;46541;49.894;10.886;2023-04-25T11:53:42;15.60;76.00
60701;DHT22;46541;49.894;10.886;2023-04-25T11:56:11;15.30;77.00
60701;DHT22;46541;49.894;10.886;2023-04-25T11:59:14;15.20;77.70
60701;DHT22;46541;49.894;10.886;2023-04-25T12:01:48;15.00;78.70
60701;DHT22;46541;49.894;10.886;2023-04-25T12:04:35;14.70;79.60
60701;DHT22;46541;49.894;10.886;2023-04-25T12:07:02;14.50;79.80
60701;DHT22;46541;49.894;10.886;2023-04-25T12:09:30;14.50;81.00
60701;DHT22;46541;49.894;10.886;2023-04-25T12:11:58;14.50;82.10
60701;DHT22;46541;49.894;10.886;2023-04-25T12:14:27;14.40;81.50
60701;DHT22;46541;49.894;10.886;2023-04-25T12:16:56;14.40;80.90
60701;DHT22;46541;49.894;10.886;2023-04-25T12:19:24;14.20;81.80
60701;DHT22;46541;49.894;10.886;2023-04-25T12:21:51;14.20;81.90
60701;DHT22;46541;49.894;10.886;2023-04-25T12:24:26;14.20;83.20
60701;DHT22;46541;49.894;10.886;2023-04-25T12:27:03;14.10;84.00
60701;DHT22;46541;49.894;10.886;2023-04-25T12:29:32;14.30;83.40
60701;DHT22;46541;49.894;10.886;2023-04-25T12:32:13;14.50;81.90
60701;DHT22;46541;49.894;10.886;2023-04-25T12:34:40;14.70;80.90
60701;DHT22;46541;49.894;10.886;2023-04-25T12:37:07;14.90;79.60
60701;DHT22;46541;49.894;10.886;2023-04-25T12:39:33;15.10;79.00
60701;DHT22;46541;49.894;10.886;2023-04-25T12:42:00;15.30;79.20
60701;DHT22;46541;49.894;10.886;2023-04-25T12:44:27;15.50;78.70
60701;DHT22;46541;49.894;10.886;2023-04-25T12:46:54;15.50;77.70
60701;DHT22;46541;49.894;10.886;2023-04-25T12:49:21;15.50;77.10
60701;DHT22;46541;49.894;10.886;2023-04-25T12:51:48;15.60;77.10
60701;DHT22;46541;49.894;10.886;2023-04-25T12:54:15;15.60;77.20
60701;DHT22;46541;49.894;10.886;2023-04-25T12:56:42;15.40;77.70
60701;DHT22;46541;49.894;10.886;2023-04-25T12:59:09;15.30;78.50
60701;DHT22;46541;49.894;10.886;2023-04-25T13:01:36;15.20;78.00
60701;DHT22;46541;49.894;10.886;2023-04-25T13:04:04;15.10;78.60
60701;DHT22;46541;49.894;10.886;2023-04-25T13:06:31;15.10;79.40
60701;DHT22;46541;49.894;10.886;2023-04-25T13:08:57;15.10;78.80
60701;DHT22;46541;49.894;10.886;2023-04-25T13:11:24;15.10;78.60
60701;DHT22;46541;49.894;10.886;2023-04-25T13:13:51;15.10;78.50
60701;DHT22;46541;49.894;10.886;2023-04-25T13:16:18;15.10;77.70
60701;DHT22;46541;49.894;10.886;2023-04-25T13:18:47;15.10;78.20
60701;DHT22;46541;49.894;10.886;2023-04-25T13:21:14;15.10;78.70
60701;DHT22;46541;49.894;10.886;2023-04-25T13:23:41;15.20;77.80
60701;DHT22;46541;49.894;10.886;2023-04-25T13:26:09;15.50;77.50
60701;DHT22;46541;49.894;10.886;2023-04-25T13:28:36;15.70;76.50
60701;DHT22;46541;49.894;10.886;2023-04-25T13:31:03;15.70;76.50
60701;DHT22;46541;49.894;10.886;2023-04-25T13:33:30;15.60;76.40
60701;DHT22;46541;49.894;10.886;2023-04-25T13:35:56;15.40;77.10
60701;DHT22;46541;49.894;10.886;2023-04-25T13:38:24;15.10;78.30
60701;DHT22;46541;49.894;10.886;2023-04-25T13:40:52;14.80;78.00
60701;DHT22;46541;49.894;10.886;2023-04-25T13:43:22;14.50;79.40
60701;DHT22;46541;49.894;10.886;2023-04-25T13:45:50;14.20;79.30
60701;DHT22;46541;49.894;10.886;2023-04-25T13:48:18;13.90;82.40
60701;DHT22;46541;49.894;10.886;2023-04-25T13:50:45;13.70;88.00
60701;DHT22;46541;49.894;10.886;2023-04-25T13:53:12;13.60;87.80
60701;DHT22;46541;49.894;10.886;2023-04-25T13:55:39;13.40;87.40
60701;DHT22;46541;49.894;10.886;2023-04-25T13:58:06;13.20;86.70
60701;DHT22;46541;49.894;10.886;2023-04-25T14:00:37;13.00;86.00
60701;DHT22;46541;49.894;10.886;2023-04-25T14:03:09;13.00;84.80
60701;DHT22;46541;49.894;10.886;2023-04-25T14:05:36;12.90;85.20
60701;DHT22;46541;49.894;10.886;2023-04-25T14:08:09;12.90;84.90
60701;DHT22;46541;49.894;10.886;2023-04-25T14:10:36;12.80;86.00
60701;DHT22;46541;49.894;10.886;2023-04-25T14:13:03;12.80;86.20
60701;DHT22;46541;49.894;10.886;2023-04-25T14:15:34;12.80;87.80
60701;DHT22;46541;49.894;10.886;2023-04-25T14:18:01;12.80;86.40
60701;DHT22;46541;49.894;10.886;2023-04-25T14:20:29;12.70;85.60
60701;DHT22;46541;49.894;10.886;2023-04-25T14:22:56;12.70;86.00
60701;DHT22;46541;49.894;10.886;2023-04-25T14:25:24;12.80;85.70
60701;DHT22;46541;49.894;10.886;2023-04-25T14:27:52;12.80;85.70
60701;DHT22;46541;49.894;10.886;2023-04-25T14:30:20;13.00;85.90
60701;DHT22;46541;49.894;10.886;2023-04-25T14:32:50;13.10;85.80
60701;DHT22;46541;49.894;10.886;2023-04-25T14:35:17;13.10;85.60
60701;DHT22;46541;49.894;10.886;2023-04-25T14:37:44;13.00;86.00
60701;DHT22;46541;49.894;10.886;2023-04-25T14:40:12;13.00;85.90
60701;DHT22;46541;49.894;10.886;2023-04-25T14:42:40;12.90;86.20
60701;DHT22;46541;49.894;10.886;2023-04-25T14:45:07;12.80;87.60
60701;DHT22;46541;49.894;10.886;2023-04-25T14:47:37;12.70;89.00
60701;DHT22;46541;49.894;10.886;2023-04-25T14:50:06;12.60;89.90
60701;DHT22;46541;49.894;10.886;2023-04-25T14:52:33;12.60;90.40
60701;DHT22;46541;49.894;10.886;2023-04-25T14:55:00;12.60;90.40
60701;DHT22;46541;49.894;10.886;2023-04-25T14:57:32;12.60;90.60
60701;DHT22;46541;49.894;10.886;2023-04-25T14:59:58;12.60;90.80
60701;DHT22;46541;49.894;10.886;2023-04-25T15:02:25;12.70;90.20
60701;DHT22;46541;49.894;10.886;2023-04-25T15:04:53;12.70;90.30
60701;DHT22;46541;49.894;10.886;2023-04-25T15:07:21;12.80;90.00
60701;DHT22;46541;49.894;10.886;2023-04-25T15:09:48;12.80;89.20
60701;DHT22;46541;49.894;10.886;2023-04-25T15:12:15;12.80;89.20
60701;DHT22;46541;49.894;10.886;2023-04-25T15:14:42;13.00;87.80
60701;DHT22;46541;49.894;10.886;2023-04-25T15:17:08;13.20;87.40
60701;DHT22;46541;49.894;10.886;2023-04-25T15:19:35;13.50;86.00
60701;DHT22;46541;49.894;10.886;2023-04-25T15:22:02;13.80;84.80
60701;DHT22;46541;49.894;10.886;2023-04-25T15:24:29;14.00;84.70